createdAt,value
2023-07-09T00:00:18.739Z,42.82
2023-07-09T00:03:04.737Z,42.85
2023-07-09T00:05:50.721Z,42.98
2023-07-09T00:09:44.354Z,43.28
2023-07-09T00:12:30.381Z,43.02
2023-07-09T00:15:17.351Z,42.86
2023-07-09T00:18:04.645Z,43.04
2023-07-09T00:20:50.663Z,42.96
2023-07-09T00:23:39.956Z,42.98
2023-07-09T00:26:42.832Z,43.28
2023-07-09T00:29:28.883Z,43.02
2023-07-09T00:32:17.116Z,43.05
2023-07-09T00:36:15.368Z,43.61
2023-07-09T00:39:05.852Z,43.27
2023-07-09T00:42:35.538Z,43.35
2023-07-09T00:45:27.398Z,43.45
2023-07-09T00:48:17.785Z,43.29
2023-07-09T00:51:13.728Z,43.18
2023-07-09T00:54:08.382Z,43.46
2023-07-09T00:56:56.499Z,43.29
2023-07-09T00:59:44.306Z,43.21
2023-07-09T01:02:30.829Z,43.27
2023-07-09T01:05:18.689Z,43.10
2023-07-09T01:08:04.916Z,43.39
2023-07-09T01:10:51.372Z,43.52
2023-07-09T01:13:37.146Z,43.56
2023-07-09T01:16:26.888Z,43.47
2023-07-09T01:19:15.240Z,43.56
2023-07-09T01:22:08.124Z,43.77
2023-07-09T01:25:03.802Z,43.85
2023-07-09T01:27:50.781Z,43.52
2023-07-09T01:30:39.264Z,43.60
2023-07-09T01:33:25.106Z,43.55
2023-07-09T01:36:14.757Z,43.80
2023-07-09T01:39:01.533Z,43.70
2023-07-09T01:41:48.679Z,43.63
2023-07-09T01:44:36.758Z,43.81
2023-07-09T01:47:25.250Z,43.82
2023-07-09T01:50:12.070Z,43.68
2023-07-09T01:52:58.161Z,43.90
2023-07-09T01:55:45.221Z,43.66
2023-07-09T01:58:31.838Z,43.84
2023-07-09T02:01:21.002Z,43.67
2023-07-09T02:04:07.085Z,43.78
2023-07-09T02:06:53.282Z,43.76
2023-07-09T02:09:39.275Z,43.98
2023-07-09T02:12:25.654Z,43.98
2023-07-09T02:15:12.412Z,43.95
2023-07-09T02:18:00.350Z,44.00
2023-07-09T02:20:47.876Z,44.08
2023-07-09T02:23:35.180Z,44.12
2023-07-09T02:26:21.210Z,44.20
2023-07-09T02:29:08.767Z,44.30
2023-07-09T02:31:56.802Z,44.22
2023-07-09T02:34:42.922Z,44.18
2023-07-09T02:37:29.016Z,44.39
2023-07-09T02:40:17.369Z,44.34
2023-07-09T02:43:03.206Z,44.23
2023-07-09T02:45:49.600Z,44.23
2023-07-09T02:48:35.597Z,44.34
2023-07-09T02:51:21.294Z,44.37
2023-07-09T02:54:07.708Z,44.60
2023-07-09T02:56:53.908Z,44.30
2023-07-09T02:59:40.528Z,44.32
2023-07-09T03:02:27.108Z,44.36
2023-07-09T03:05:13.112Z,44.14
2023-07-09T03:07:58.849Z,44.39
2023-07-09T03:10:44.943Z,44.40
2023-07-09T03:14:06.476Z,44.71
2023-07-09T03:16:57.486Z,44.38
2023-07-09T03:19:43.505Z,44.25
2023-07-09T03:22:29.546Z,44.31
2023-07-09T03:25:15.542Z,44.35
2023-07-09T03:28:01.700Z,44.52
2023-07-09T03:30:49.160Z,44.63
2023-07-09T03:33:35.296Z,44.66
2023-07-09T03:36:23.412Z,44.57
2023-07-09T03:39:09.505Z,44.59
2023-07-09T03:41:55.539Z,44.62
2023-07-09T03:44:42.135Z,44.66
2023-07-09T03:47:28.147Z,44.57
2023-07-09T03:50:13.915Z,44.63
2023-07-09T03:52:59.696Z,44.77
2023-07-09T03:55:54.205Z,44.93
2023-07-09T03:58:40.283Z,44.72
2023-07-09T04:01:26.377Z,44.87
2023-07-09T04:04:12.585Z,44.90
2023-07-09T04:07:00.820Z,44.93
2023-07-09T04:09:46.748Z,45.00
2023-07-09T04:12:32.797Z,45.19
2023-07-09T04:15:18.874Z,45.22
2023-07-09T04:18:05.107Z,45.24
2023-07-09T04:20:51.645Z,45.25
2023-07-09T04:23:37.575Z,45.37
2023-07-09T04:26:24.703Z,45.32
2023-07-09T04:29:11.392Z,45.15
2023-07-09T04:31:57.733Z,45.37
2023-07-09T04:34:43.801Z,45.24
2023-07-09T04:37:29.652Z,45.25
2023-07-09T04:40:16.375Z,45.27
2023-07-09T04:43:02.373Z,45.12
2023-07-09T04:45:49.019Z,45.53
2023-07-09T04:48:34.888Z,45.28
2023-07-09T04:51:20.541Z,45.09
2023-07-09T04:54:06.528Z,45.37
2023-07-09T04:56:52.684Z,45.35
2023-07-09T04:59:42.941Z,45.13
2023-07-09T05:02:29.095Z,45.28
2023-07-09T05:05:15.798Z,45.24
2023-07-09T05:08:02.319Z,45.14
2023-07-09T05:10:51.757Z,45.20
2023-07-09T05:13:38.052Z,45.17
2023-07-09T05:16:24.243Z,45.19
2023-07-09T05:19:10.225Z,45.12
2023-07-09T05:21:56.190Z,45.01
2023-07-09T05:24:42.613Z,45.05
2023-07-09T05:27:29.227Z,45.02
2023-07-09T05:30:15.240Z,44.89
2023-07-09T05:33:01.256Z,44.97
2023-07-09T05:35:47.627Z,45.12
2023-07-09T05:38:45.061Z,45.27
2023-07-09T05:41:31.156Z,45.33
2023-07-09T05:44:17.064Z,44.96
2023-07-09T05:47:05.177Z,44.97
2023-07-09T05:49:53.946Z,44.83
2023-07-09T05:52:52.108Z,45.08
2023-07-09T05:55:37.835Z,44.84
2023-07-09T05:58:24.492Z,44.64
2023-07-09T06:01:11.497Z,44.65
2023-07-09T06:03:58.012Z,44.47
2023-07-09T06:06:45.396Z,44.63
2023-07-09T06:09:32.736Z,44.65
2023-07-09T06:12:23.210Z,44.54
2023-07-09T06:15:09.829Z,44.47
2023-07-09T06:17:56.175Z,44.59
2023-07-09T06:20:42.045Z,44.66
2023-07-09T06:23:28.485Z,44.43
2023-07-09T06:26:14.228Z,44.51
2023-07-09T06:29:00.219Z,44.42
2023-07-09T06:31:46.421Z,44.46
2023-07-09T06:34:32.351Z,44.38
2023-07-09T06:37:18.499Z,44.28
2023-07-09T06:40:08.544Z,44.42
2023-07-09T06:42:54.570Z,44.29
2023-07-09T06:46:00.825Z,44.47
2023-07-09T06:48:47.090Z,44.08
2023-07-09T06:51:32.935Z,44.37
2023-07-09T06:54:19.258Z,44.34
2023-07-09T06:57:05.247Z,44.15
2023-07-09T06:59:51.492Z,44.24
2023-07-09T07:02:37.807Z,44.25
2023-07-09T07:05:23.970Z,44.11
2023-07-09T07:08:09.769Z,44.20
2023-07-09T07:11:04.104Z,44.14
2023-07-09T07:13:52.806Z,44.22
2023-07-09T07:16:38.915Z,44.20
2023-07-09T07:19:24.945Z,44.18
2023-07-09T07:22:11.202Z,44.10
2023-07-09T07:24:56.846Z,44.09
2023-07-09T07:27:43.168Z,44.19
2023-07-09T07:30:29.644Z,44.06
2023-07-09T07:33:17.325Z,44.04
2023-07-09T07:36:28.147Z,43.99
2023-07-09T07:39:13.033Z,43.86
2023-07-09T07:41:58.928Z,43.83
2023-07-09T07:44:44.931Z,43.87
2023-07-09T07:47:31.630Z,43.62
2023-07-09T07:50:17.423Z,43.81
2023-07-09T07:53:03.932Z,43.52
2023-07-09T07:55:49.833Z,43.35
2023-07-09T07:58:35.979Z,43.34
2023-07-09T08:01:22.238Z,43.28
2023-07-09T08:04:08.198Z,43.10
2023-07-09T08:06:54.573Z,42.97
2023-07-09T08:09:43.928Z,42.88
2023-07-09T08:12:32.078Z,42.82
2023-07-09T08:15:18.782Z,42.85
2023-07-09T08:18:05.099Z,42.61
2023-07-09T08:20:51.034Z,42.32
2023-07-09T08:23:38.145Z,42.18
2023-07-09T08:26:25.361Z,41.92
2023-07-09T08:29:11.615Z,42.04
2023-07-09T08:31:57.723Z,42.13
2023-07-09T08:35:05.174Z,42.07
2023-07-09T08:37:50.970Z,42.00
2023-07-09T08:40:44.499Z,42.05
2023-07-09T08:43:30.248Z,41.97
2023-07-09T08:46:30.546Z,41.45
2023-07-09T08:49:21.173Z,41.69
2023-07-09T08:52:17.235Z,41.81
2023-07-09T08:55:07.756Z,41.78
2023-07-09T08:58:00.953Z,41.46
2023-07-09T09:01:01.103Z,41.29
2023-07-09T09:03:53.632Z,41.13
2023-07-09T09:06:43.509Z,41.10
2023-07-09T09:09:42.151Z,40.82
2023-07-09T09:12:34.211Z,40.57
2023-07-09T09:15:21.565Z,40.69
2023-07-09T09:18:24.642Z,40.16
2023-07-09T09:21:24.443Z,40.27
2023-07-09T09:24:20.762Z,39.88
2023-07-09T09:27:06.711Z,40.08
2023-07-09T09:29:52.868Z,39.92
2023-07-09T09:33:08.657Z,39.86
2023-07-09T09:36:04.853Z,39.83
2023-07-09T09:38:54.693Z,39.63
2023-07-09T09:41:43.747Z,39.34
2023-07-09T09:44:31.478Z,39.69
2023-07-09T09:47:19.979Z,38.95
2023-07-09T09:50:06.802Z,38.89
2023-07-09T09:52:52.710Z,38.67
2023-07-09T09:55:40.254Z,38.69
2023-07-09T09:58:28.978Z,38.54
2023-07-09T10:01:18.365Z,38.56
2023-07-09T10:04:05.470Z,38.06
2023-07-09T10:07:07.787Z,38.14
2023-07-09T10:09:55.635Z,38.06
2023-07-09T10:12:49.023Z,37.84
2023-07-09T10:16:01.143Z,37.89
2023-07-09T10:19:14.783Z,37.38
2023-07-09T10:22:24.440Z,37.31
2023-07-09T10:25:46.072Z,37.07
2023-07-09T10:28:50.618Z,37.05
2023-07-09T10:31:43.707Z,36.95
2023-07-09T10:34:52.242Z,36.71
2023-07-09T10:38:16.653Z,36.73
2023-07-09T10:41:24.071Z,36.50
2023-07-09T10:44:21.376Z,36.29
2023-07-09T10:47:23.708Z,35.91
2023-07-09T10:50:15.585Z,36.03
2023-07-09T10:53:16.529Z,35.51
2023-07-09T10:56:14.346Z,35.31
2023-07-09T10:59:22.865Z,35.40
2023-07-09T11:02:24.340Z,35.27
2023-07-09T11:05:10.704Z,35.33
2023-07-09T11:08:14.847Z,35.01
2023-07-09T11:11:04.826Z,35.16
2023-07-09T11:13:55.930Z,35.35
2023-07-09T11:16:43.517Z,35.07
2023-07-09T11:19:30.809Z,34.86
2023-07-09T11:22:39.332Z,34.62
2023-07-09T11:25:43.286Z,34.69
2023-07-09T11:28:39.973Z,34.95
2023-07-09T11:31:36.240Z,34.92
2023-07-09T11:34:31.345Z,35.06
2023-07-09T11:37:18.178Z,35.14
2023-07-09T11:40:12.318Z,34.93
2023-07-09T11:42:59.799Z,35.13
2023-07-09T11:45:46.101Z,35.10
2023-07-09T11:48:36.114Z,34.83
2023-07-09T11:51:25.851Z,34.89
2023-07-09T11:54:15.129Z,34.99
2023-07-09T11:57:04.137Z,34.78
2023-07-09T11:59:50.403Z,34.66
2023-07-09T12:02:36.842Z,34.74
2023-07-09T12:05:27.878Z,34.38
2023-07-09T12:08:16.788Z,34.20
2023-07-09T12:11:02.925Z,34.26
2023-07-09T12:13:49.682Z,34.32
2023-07-09T12:16:38.303Z,34.15
2023-07-09T12:19:25.929Z,33.98
2023-07-09T12:22:22.037Z,34.07
2023-07-09T12:25:19.852Z,33.81
2023-07-09T12:28:05.936Z,34.28
2023-07-09T12:30:53.455Z,34.03
2023-07-09T12:33:39.159Z,34.05
2023-07-09T12:36:26.566Z,33.55
2023-07-09T12:39:14.255Z,33.61
2023-07-09T12:42:02.070Z,33.80
2023-07-09T12:44:50.071Z,33.60
2023-07-09T12:47:36.700Z,33.31
2023-07-09T12:50:33.115Z,33.19
2023-07-09T12:53:24.131Z,33.20
2023-07-09T12:56:14.552Z,33.50
2023-07-09T12:59:00.425Z,33.00
2023-07-09T13:01:57.648Z,32.50
2023-07-09T13:04:44.626Z,32.72
2023-07-09T13:07:38.950Z,32.54
2023-07-09T13:10:30.514Z,32.36
2023-07-09T13:13:22.147Z,32.49
2023-07-09T13:16:08.264Z,32.29
2023-07-09T13:18:55.984Z,32.03
2023-07-09T13:21:43.979Z,32.33
2023-07-09T13:24:32.024Z,32.25
2023-07-09T13:27:18.091Z,32.45
2023-07-09T13:30:04.578Z,32.37
2023-07-09T13:32:50.942Z,31.91
2023-07-09T13:35:39.056Z,31.90
2023-07-09T13:38:25.312Z,32.08
2023-07-09T13:41:17.398Z,31.44
2023-07-09T13:44:06.156Z,31.55
2023-07-09T13:46:53.269Z,31.52
2023-07-09T13:49:39.422Z,31.32
2023-07-09T13:52:26.855Z,31.26
2023-07-09T13:55:24.724Z,30.66
2023-07-09T13:58:12.341Z,30.51
2023-07-09T14:01:06.126Z,30.61
2023-07-09T14:03:55.917Z,30.41
2023-07-09T14:06:42.501Z,30.56
2023-07-09T14:09:28.368Z,30.55
2023-07-09T14:12:14.390Z,30.10
2023-07-09T14:15:01.941Z,30.17
2023-07-09T14:17:48.343Z,30.17
2023-07-09T14:20:34.368Z,30.13
2023-07-09T14:23:21.438Z,30.20
2023-07-09T14:26:08.741Z,30.32
2023-07-09T14:28:55.182Z,30.08
2023-07-09T14:31:41.239Z,30.07
2023-07-09T14:34:33.955Z,29.90
2023-07-09T14:37:21.067Z,29.98
2023-07-09T14:40:07.814Z,30.34
2023-07-09T14:42:53.911Z,29.96
2023-07-09T14:45:40.169Z,30.10
2023-07-09T14:48:26.121Z,29.93
2023-07-09T14:51:17.108Z,29.99
2023-07-09T14:54:03.892Z,29.95
2023-07-09T14:56:50.889Z,29.72
2023-07-09T14:59:39.899Z,29.77
2023-07-09T15:02:35.324Z,29.60
2023-07-09T15:05:26.328Z,29.21
2023-07-09T15:08:15.235Z,29.54
2023-07-09T15:11:01.567Z,29.84
2023-07-09T15:13:47.771Z,29.84
2023-07-09T15:16:34.983Z,29.91
2023-07-09T15:19:23.683Z,29.71
2023-07-09T15:22:20.636Z,30.23
2023-07-09T15:25:15.706Z,30.11
2023-07-09T15:28:01.816Z,30.08
2023-07-09T15:30:48.161Z,30.32
2023-07-09T15:33:33.966Z,30.39
2023-07-09T15:36:19.872Z,30.92
2023-07-09T15:39:06.037Z,30.35
2023-07-09T15:41:51.912Z,30.32
2023-07-09T15:44:37.993Z,30.42
2023-07-09T15:47:26.237Z,30.05
2023-07-09T15:50:23.003Z,29.91
2023-07-09T15:53:11.537Z,30.44
2023-07-09T15:56:00.264Z,30.09
2023-07-09T15:58:47.887Z,30.16
2023-07-09T16:01:33.922Z,30.84
2023-07-09T16:04:19.914Z,30.71
2023-07-09T16:07:06.269Z,30.22
2023-07-09T16:09:52.515Z,30.27
2023-07-09T16:12:38.716Z,30.10
2023-07-09T16:15:25.723Z,29.72
2023-07-09T16:18:16.414Z,29.90
2023-07-09T16:21:03.736Z,29.77
2023-07-09T16:23:49.980Z,29.44
2023-07-09T16:26:40.839Z,29.37
2023-07-09T16:29:31.762Z,29.39
2023-07-09T16:32:18.937Z,29.25
2023-07-09T16:35:05.131Z,29.04
2023-07-09T16:37:51.997Z,29.31
2023-07-09T16:40:38.546Z,29.31
2023-07-09T16:43:24.948Z,29.18
2023-07-09T16:46:29.042Z,27.49
2023-07-09T16:49:37.964Z,28.72
2023-07-09T16:52:27.898Z,29.15
2023-07-09T16:55:24.771Z,29.20
2023-07-09T16:58:23.539Z,29.01
2023-07-09T17:01:10.025Z,29.44
2023-07-09T17:03:56.394Z,29.51
2023-07-09T17:06:45.629Z,29.54
2023-07-09T17:09:31.957Z,29.33
2023-07-09T17:12:18.321Z,29.25
2023-07-09T17:15:20.987Z,29.43
2023-07-09T17:18:19.565Z,29.42
2023-07-09T17:21:05.839Z,29.44
2023-07-09T17:23:52.168Z,29.51
2023-07-09T17:26:38.047Z,29.82
2023-07-09T17:29:25.539Z,29.92
2023-07-09T17:32:13.222Z,29.97
2023-07-09T17:34:59.142Z,30.16
2023-07-09T17:37:54.992Z,30.08
2023-07-09T17:40:44.085Z,30.55
2023-07-09T17:43:31.833Z,30.40
2023-07-09T17:46:17.909Z,30.80
2023-07-09T17:49:09.496Z,30.88
2023-07-09T17:51:57.916Z,30.68
2023-07-09T17:54:44.633Z,30.80
2023-07-09T17:57:30.598Z,31.18
2023-07-09T18:00:24.292Z,31.16
2023-07-09T18:03:12.303Z,31.45
2023-07-09T18:05:58.799Z,31.48
2023-07-09T18:08:44.832Z,31.66
2023-07-09T18:11:37.563Z,31.45
2023-07-09T18:14:35.504Z,31.75
2023-07-09T18:17:31.814Z,31.93
2023-07-09T18:20:22.717Z,32.10
2023-07-09T18:23:09.378Z,31.93
2023-07-09T18:25:55.232Z,32.34
2023-07-09T18:28:45.388Z,32.42
2023-07-09T18:31:32.296Z,32.33
2023-07-09T18:34:18.153Z,32.37
2023-07-09T18:37:04.612Z,32.75
2023-07-09T18:39:52.401Z,32.48
2023-07-09T18:42:38.527Z,32.83
2023-07-09T18:45:27.576Z,32.64
2023-07-09T18:48:15.840Z,33.12
2023-07-09T18:51:02.402Z,33.12
2023-07-09T18:53:48.003Z,33.41
2023-07-09T18:56:34.028Z,33.53
2023-07-09T18:59:22.233Z,33.44
2023-07-09T19:02:21.185Z,33.54
2023-07-09T19:05:18.560Z,33.88
2023-07-09T19:08:19.014Z,33.96
2023-07-09T19:11:04.956Z,34.20
2023-07-09T19:13:51.346Z,34.22
2023-07-09T19:16:37.993Z,34.14
2023-07-09T19:19:24.455Z,34.38
2023-07-09T19:22:13.282Z,34.18
2023-07-09T19:24:59.651Z,34.36
2023-07-09T19:27:46.104Z,34.43
2023-07-09T19:30:32.191Z,34.66
2023-07-09T19:33:21.099Z,34.61
2023-07-09T19:36:25.278Z,34.88
2023-07-09T19:39:27.242Z,34.92
2023-07-09T19:42:14.121Z,34.69
2023-07-09T19:45:00.505Z,35.00
2023-07-09T19:47:47.733Z,34.91
2023-07-09T19:50:34.717Z,35.16
2023-07-09T19:53:25.176Z,34.98
2023-07-09T19:56:12.755Z,35.21
2023-07-09T19:59:02.454Z,35.51
2023-07-09T20:01:50.844Z,35.45
2023-07-09T20:04:36.808Z,35.56
2023-07-09T20:07:22.956Z,35.78
2023-07-09T20:10:14.667Z,35.93
2023-07-09T20:13:02.249Z,35.69
2023-07-09T20:15:54.404Z,35.93
2023-07-09T20:18:48.066Z,36.17
2023-07-09T20:21:34.647Z,36.19
2023-07-09T20:24:22.472Z,36.15
2023-07-09T20:27:16.669Z,36.32
2023-07-09T20:30:03.048Z,36.36
2023-07-09T20:32:51.248Z,36.44
2023-07-09T20:35:37.142Z,36.45
2023-07-09T20:38:25.214Z,36.49
2023-07-09T20:41:18.341Z,36.72
2023-07-09T20:44:04.713Z,36.79
2023-07-09T20:46:51.530Z,37.10
2023-07-09T20:49:37.705Z,37.09
2023-07-09T20:52:26.651Z,37.03
2023-07-09T20:55:14.628Z,37.27
2023-07-09T20:58:00.720Z,37.53
2023-07-09T21:00:48.452Z,37.80
2023-07-09T21:03:34.879Z,37.90
2023-07-09T21:06:22.505Z,38.11
2023-07-09T21:09:32.124Z,38.68
2023-07-09T21:12:19.102Z,38.18
2023-07-09T21:15:05.647Z,38.36
2023-07-09T21:17:54.064Z,38.30
2023-07-09T21:20:40.798Z,38.52
2023-07-09T21:23:26.938Z,38.42
2023-07-09T21:26:17.334Z,38.51
2023-07-09T21:29:03.569Z,38.56
2023-07-09T21:31:50.644Z,38.55
2023-07-09T21:34:36.751Z,38.60
2023-07-09T21:37:23.639Z,38.59
2023-07-09T21:40:22.678Z,39.14
2023-07-09T21:43:09.177Z,38.80
2023-07-09T21:45:58.258Z,38.96
2023-07-09T21:48:44.150Z,39.07
2023-07-09T21:51:30.397Z,39.04
2023-07-09T21:54:58.816Z,39.29
2023-07-09T21:57:35.783Z,39.19
2023-07-09T22:00:24.161Z,39.30
2023-07-09T22:03:14.076Z,39.39
2023-07-09T22:05:59.965Z,39.47
2023-07-09T22:08:48.277Z,39.60
2023-07-09T22:11:34.548Z,39.66
2023-07-09T22:14:23.229Z,39.88
2023-07-09T22:17:10.119Z,39.95
2023-07-09T22:19:57.477Z,40.16
2023-07-09T22:22:43.756Z,40.38
2023-07-09T22:25:32.904Z,40.48
2023-07-09T22:28:19.406Z,40.42
2023-07-09T22:31:06.501Z,40.26
2023-07-09T22:33:52.773Z,40.18
2023-07-09T22:36:38.604Z,40.16
2023-07-09T22:39:24.986Z,40.27
2023-07-09T22:42:12.371Z,40.27
2023-07-09T22:44:58.423Z,40.06
2023-07-09T22:47:45.411Z,40.31
2023-07-09T22:50:39.546Z,40.36
2023-07-09T22:53:26.814Z,40.18
2023-07-09T22:56:12.814Z,40.18
2023-07-09T22:58:59.042Z,40.27
2023-07-09T23:01:46.085Z,40.29
2023-07-09T23:04:32.161Z,40.35
2023-07-09T23:07:18.742Z,40.41
2023-07-09T23:10:06.045Z,40.48
2023-07-09T23:12:51.801Z,40.45
2023-07-09T23:15:38.220Z,40.45
2023-07-09T23:18:24.429Z,40.48
2023-07-09T23:21:10.161Z,40.57
2023-07-09T23:24:02.710Z,40.74
2023-07-09T23:26:51.039Z,40.64
2023-07-09T23:29:37.020Z,40.55
2023-07-09T23:32:23.947Z,40.61
2023-07-09T23:35:19.790Z,40.64
2023-07-09T23:38:06.931Z,40.58
2023-07-09T23:40:59.339Z,40.39
2023-07-09T23:43:45.473Z,40.64
2023-07-09T23:46:37.101Z,40.61
2023-07-09T23:49:29.271Z,40.61
2023-07-09T23:52:15.407Z,40.75
2023-07-09T23:55:01.337Z,40.63
2023-07-09T23:57:53.861Z,40.68
